sensor_id;sensor_type;location;lat;lon;timestamp;temperature;humidity
19567;DHT22;9930;49.240;8.548;2023-08-07T00:01:38;16.60;79.40
19567;DHT22;9930;49.240;8.548;2023-08-07T00:04:03;16.60;79.30
19567;DHT22;9930;49.240;8.548;2023-08-07T00:06:29;16.60;79.30
19567;DHT22;9930;49.240;8.548;2023-08-07T00:08:57;16.60;79.40
19567;DHT22;9930;49.240;8.548;2023-08-07T00:11:25;16.60;79.40
19567;DHT22;9930;49.240;8.548;2023-08-07T00:13:54;16.60;79.20
19567;DHT22;9930;49.240;8.548;2023-08-07T00:16:21;16.60;79.20
19567;DHT22;9930;49.240;8.548;2023-08-07T00:18:47;16.60;79.10
19567;DHT22;9930;49.240;8.548;2023-08-07T00:21:14;16.60;79.00
19567;DHT22;9930;49.240;8.548;2023-08-07T00:23:40;16.50;78.90
19567;DHT22;9930;49.240;8.548;2023-08-07T00:26:08;16.50;78.90
19567;DHT22;9930;49.240;8.548;2023-08-07T00:28:34;16.50;79.10
19567;DHT22;9930;49.240;8.548;2023-08-07T00:30:59;16.50;79.10
19567;DHT22;9930;49.240;8.548;2023-08-07T00:33:25;16.50;79.20
19567;DHT22;9930;49.240;8.548;2023-08-07T00:35:51;16.50;79.10
19567;DHT22;9930;49.240;8.548;2023-08-07T00:38:19;16.50;79.10
19567;DHT22;9930;49.240;8.548;2023-08-07T00:40:45;16.50;79.10
19567;DHT22;9930;49.240;8.548;2023-08-07T00:43:10;16.40;79.10
19567;DHT22;9930;49.240;8.548;2023-08-07T00:45:45;16.50;79.20
19567;DHT22;9930;49.240;8.548;2023-08-07T00:48:16;16.40;79.30
19567;DHT22;9930;49.240;8.548;2023-08-07T00:50:44;16.40;79.30
19567;DHT22;9930;49.240;8.548;2023-08-07T00:53:11;16.40;79.30
19567;DHT22;9930;49.240;8.548;2023-08-07T00:55:37;16.40;79.20
19567;DHT22;9930;49.240;8.548;2023-08-07T00:58:05;16.40;79.20
19567;DHT22;9930;49.240;8.548;2023-08-07T01:00:31;16.40;79.30
19567;DHT22;9930;49.240;8.548;2023-08-07T01:02:57;16.40;79.30
19567;DHT22;9930;49.240;8.548;2023-08-07T01:05:27;16.40;79.30
19567;DHT22;9930;49.240;8.548;2023-08-07T01:07:53;16.40;79.30
19567;DHT22;9930;49.240;8.548;2023-08-07T01:13:58;16.30;79.30
19567;DHT22;9930;49.240;8.548;2023-08-07T01:17:00;16.30;79.10
19567;DHT22;9930;49.240;8.548;2023-08-07T01:19:31;16.30;79.20
19567;DHT22;9930;49.240;8.548;2023-08-07T01:22:09;16.30;79.20
19567;DHT22;9930;49.240;8.548;2023-08-07T01:24:41;16.30;79.20
19567;DHT22;9930;49.240;8.548;2023-08-07T01:33:12;16.20;79.10
19567;DHT22;9930;49.240;8.548;2023-08-07T01:35:55;16.20;79.00
19567;DHT22;9930;49.240;8.548;2023-08-07T01:38:25;16.20;79.00
19567;DHT22;9930;49.240;8.548;2023-08-07T01:40:52;16.20;79.00
19567;DHT22;9930;49.240;8.548;2023-08-07T01:43:19;16.20;79.00
19567;DHT22;9930;49.240;8.548;2023-08-07T01:45:45;16.20;79.10
19567;DHT22;9930;49.240;8.548;2023-08-07T01:48:11;16.20;79.10
19567;DHT22;9930;49.240;8.548;2023-08-07T01:50:40;16.20;79.10
19567;DHT22;9930;49.240;8.548;2023-08-07T01:53:06;16.20;79.10
19567;DHT22;9930;49.240;8.548;2023-08-07T01:55:32;16.20;79.20
19567;DHT22;9930;49.240;8.548;2023-08-07T01:57:57;16.20;79.30
19567;DHT22;9930;49.240;8.548;2023-08-07T02:00:25;16.20;79.30
19567;DHT22;9930;49.240;8.548;2023-08-07T02:02:51;16.20;79.30
19567;DHT22;9930;49.240;8.548;2023-08-07T02:05:17;16.20;79.20
19567;DHT22;9930;49.240;8.548;2023-08-07T02:07:44;16.20;79.20
19567;DHT22;9930;49.240;8.548;2023-08-07T02:10:10;16.20;79.20
19567;DHT22;9930;49.240;8.548;2023-08-07T02:12:36;16.20;79.00
19567;DHT22;9930;49.240;8.548;2023-08-07T02:15:02;16.20;79.00
19567;DHT22;9930;49.240;8.548;2023-08-07T02:17:30;16.20;79.00
19567;DHT22;9930;49.240;8.548;2023-08-07T02:19:58;16.20;78.90
19567;DHT22;9930;49.240;8.548;2023-08-07T02:22:28;16.20;79.00
19567;DHT22;9930;49.240;8.548;2023-08-07T02:24:55;16.20;79.00
19567;DHT22;9930;49.240;8.548;2023-08-07T02:27:24;16.10;78.90
19567;DHT22;9930;49.240;8.548;2023-08-07T02:29:51;16.20;78.90
19567;DHT22;9930;49.240;8.548;2023-08-07T02:32:16;16.20;79.00
19567;DHT22;9930;49.240;8.548;2023-08-07T02:34:42;16.20;79.00
19567;DHT22;9930;49.240;8.548;2023-08-07T02:37:11;16.20;78.90
19567;DHT22;9930;49.240;8.548;2023-08-07T02:39:36;16.20;78.90
19567;DHT22;9930;49.240;8.548;2023-08-07T02:42:05;16.20;79.00
19567;DHT22;9930;49.240;8.548;2023-08-07T02:44:33;16.10;78.80
19567;DHT22;9930;49.240;8.548;2023-08-07T02:46:59;16.10;78.80
19567;DHT22;9930;49.240;8.548;2023-08-07T02:49:25;16.10;78.80
19567;DHT22;9930;49.240;8.548;2023-08-07T02:51:53;16.10;78.70
19567;DHT22;9930;49.240;8.548;2023-08-07T02:54:20;16.10;78.80
19567;DHT22;9930;49.240;8.548;2023-08-07T02:56:50;16.10;78.70
19567;DHT22;9930;49.240;8.548;2023-08-07T02:59:19;16.10;78.80
19567;DHT22;9930;49.240;8.548;2023-08-07T03:01:47;16.10;79.50
19567;DHT22;9930;49.240;8.548;2023-08-07T03:04:13;16.10;78.70
19567;DHT22;9930;49.240;8.548;2023-08-07T03:06:39;16.10;78.60
19567;DHT22;9930;49.240;8.548;2023-08-07T03:09:07;16.10;78.60
19567;DHT22;9930;49.240;8.548;2023-08-07T03:11:35;16.10;78.60
19567;DHT22;9930;49.240;8.548;2023-08-07T03:14:00;16.10;78.60
19567;DHT22;9930;49.240;8.548;2023-08-07T03:16:28;16.10;78.60
19567;DHT22;9930;49.240;8.548;2023-08-07T03:18:55;16.10;78.60
19567;DHT22;9930;49.240;8.548;2023-08-07T03:21:21;16.10;78.50
19567;DHT22;9930;49.240;8.548;2023-08-07T03:23:47;16.10;78.50
19567;DHT22;9930;49.240;8.548;2023-08-07T03:26:15;16.10;78.50
19567;DHT22;9930;49.240;8.548;2023-08-07T03:28:40;16.10;78.50
19567;DHT22;9930;49.240;8.548;2023-08-07T03:31:10;16.10;78.50
19567;DHT22;9930;49.240;8.548;2023-08-07T03:33:38;16.10;78.50
19567;DHT22;9930;49.240;8.548;2023-08-07T03:36:07;16.10;78.50
19567;DHT22;9930;49.240;8.548;2023-08-07T03:38:34;16.10;78.50
19567;DHT22;9930;49.240;8.548;2023-08-07T03:41:00;16.10;78.50
19567;DHT22;9930;49.240;8.548;2023-08-07T03:43:26;16.10;78.50
19567;DHT22;9930;49.240;8.548;2023-08-07T03:45:57;16.10;78.40
19567;DHT22;9930;49.240;8.548;2023-08-07T03:48:23;16.10;78.30
19567;DHT22;9930;49.240;8.548;2023-08-07T03:50:50;16.10;78.30
19567;DHT22;9930;49.240;8.548;2023-08-07T03:53:16;16.10;78.30
19567;DHT22;9930;49.240;8.548;2023-08-07T03:55:42;16.10;78.40
19567;DHT22;9930;49.240;8.548;2023-08-07T03:58:14;16.10;78.50
19567;DHT22;9930;49.240;8.548;2023-08-07T04:00:39;16.10;78.50
19567;DHT22;9930;49.240;8.548;2023-08-07T04:03:05;16.10;78.50
19567;DHT22;9930;49.240;8.548;2023-08-07T04:05:33;16.10;78.40
19567;DHT22;9930;49.240;8.548;2023-08-07T04:08:04;16.10;78.40
19567;DHT22;9930;49.240;8.548;2023-08-07T04:10:31;16.10;78.40
19567;DHT22;9930;49.240;8.548;2023-08-07T04:12:57;16.10;78.40
19567;DHT22;9930;49.240;8.548;2023-08-07T04:15:23;16.10;78.40
19567;DHT22;9930;49.240;8.548;2023-08-07T04:17:50;16.10;78.40
19567;DHT22;9930;49.240;8.548;2023-08-07T04:20:18;16.10;78.40
19567;DHT22;9930;49.240;8.548;2023-08-07T04:22:45;16.10;78.40
19567;DHT22;9930;49.240;8.548;2023-08-07T04:25:13;16.10;78.40
19567;DHT22;9930;49.240;8.548;2023-08-07T04:27:39;16.10;78.40
19567;DHT22;9930;49.240;8.548;2023-08-07T04:30:08;16.10;78.40
19567;DHT22;9930;49.240;8.548;2023-08-07T04:32:37;16.10;78.40
19567;DHT22;9930;49.240;8.548;2023-08-07T04:35:03;16.10;78.40
19567;DHT22;9930;49.240;8.548;2023-08-07T04:37:32;16.10;78.30
19567;DHT22;9930;49.240;8.548;2023-08-07T04:40:00;16.10;78.30
19567;DHT22;9930;49.240;8.548;2023-08-07T04:42:28;16.10;78.20
19567;DHT22;9930;49.240;8.548;2023-08-07T04:44:55;16.10;78.30
19567;DHT22;9930;49.240;8.548;2023-08-07T04:47:23;16.10;78.20
19567;DHT22;9930;49.240;8.548;2023-08-07T04:49:49;16.10;78.20
19567;DHT22;9930;49.240;8.548;2023-08-07T04:52:14;16.20;78.30
19567;DHT22;9930;49.240;8.548;2023-08-07T04:54:42;16.20;78.30
19567;DHT22;9930;49.240;8.548;2023-08-07T04:57:08;16.20;78.30
19567;DHT22;9930;49.240;8.548;2023-08-07T04:59:33;16.10;78.30
19567;DHT22;9930;49.240;8.548;2023-08-07T05:02:01;16.20;78.30
19567;DHT22;9930;49.240;8.548;2023-08-07T05:04:27;16.20;78.40
19567;DHT22;9930;49.240;8.548;2023-08-07T05:06:52;16.10;78.40
19567;DHT22;9930;49.240;8.548;2023-08-07T05:09:18;16.20;78.30
19567;DHT22;9930;49.240;8.548;2023-08-07T05:11:44;16.20;78.40
19567;DHT22;9930;49.240;8.548;2023-08-07T05:14:12;16.20;78.50
19567;DHT22;9930;49.240;8.548;2023-08-07T05:16:40;16.20;78.40
19567;DHT22;9930;49.240;8.548;2023-08-07T05:19:06;16.20;78.40
19567;DHT22;9930;49.240;8.548;2023-08-07T05:21:36;16.20;78.50
19567;DHT22;9930;49.240;8.548;2023-08-07T05:24:04;16.20;78.60
19567;DHT22;9930;49.240;8.548;2023-08-07T05:26:32;16.20;78.60
19567;DHT22;9930;49.240;8.548;2023-08-07T05:29:00;16.20;78.50
19567;DHT22;9930;49.240;8.548;2023-08-07T05:31:25;16.20;78.60
19567;DHT22;9930;49.240;8.548;2023-08-07T05:33:51;16.30;78.70
19567;DHT22;9930;49.240;8.548;2023-08-07T05:36:17;16.30;78.60
19567;DHT22;9930;49.240;8.548;2023-08-07T05:38:42;16.30;78.60
19567;DHT22;9930;49.240;8.548;2023-08-07T05:41:11;16.30;78.60
19567;DHT22;9930;49.240;8.548;2023-08-07T05:43:37;16.30;78.60
19567;DHT22;9930;49.240;8.548;2023-08-07T05:46:07;16.30;78.50
19567;DHT22;9930;49.240;8.548;2023-08-07T05:48:33;16.30;78.50
19567;DHT22;9930;49.240;8.548;2023-08-07T05:50:58;16.30;78.50
19567;DHT22;9930;49.240;8.548;2023-08-07T05:53:25;16.40;78.70
19567;DHT22;9930;49.240;8.548;2023-08-07T05:55:59;16.40;78.70
19567;DHT22;9930;49.240;8.548;2023-08-07T05:58:28;16.40;78.70
19567;DHT22;9930;49.240;8.548;2023-08-07T06:00:55;16.40;78.70
19567;DHT22;9930;49.240;8.548;2023-08-07T06:03:23;16.40;78.60
19567;DHT22;9930;49.240;8.548;2023-08-07T06:05:48;16.40;78.60
19567;DHT22;9930;49.240;8.548;2023-08-07T06:08:14;16.50;78.70
19567;DHT22;9930;49.240;8.548;2023-08-07T06:10:40;16.50;78.60
19567;DHT22;9930;49.240;8.548;2023-08-07T06:13:08;16.50;78.80
19567;DHT22;9930;49.240;8.548;2023-08-07T06:15:33;16.50;78.70
19567;DHT22;9930;49.240;8.548;2023-08-07T06:18:02;16.60;78.70
19567;DHT22;9930;49.240;8.548;2023-08-07T06:20:28;16.60;78.60
19567;DHT22;9930;49.240;8.548;2023-08-07T06:22:57;16.60;78.50
19567;DHT22;9930;49.240;8.548;2023-08-07T06:25:30;16.70;78.50
19567;DHT22;9930;49.240;8.548;2023-08-07T06:27:58;16.70;78.40
19567;DHT22;9930;49.240;8.548;2023-08-07T06:30:26;16.80;78.30
19567;DHT22;9930;49.240;8.548;2023-08-07T06:32:55;16.70;78.10
19567;DHT22;9930;49.240;8.548;2023-08-07T06:35:21;16.80;78.10
19567;DHT22;9930;49.240;8.548;2023-08-07T06:37:49;16.80;78.00
19567;DHT22;9930;49.240;8.548;2023-08-07T06:40:15;16.90;78.00
19567;DHT22;9930;49.240;8.548;2023-08-07T06:42:41;16.90;77.90
19567;DHT22;9930;49.240;8.548;2023-08-07T06:45:07;16.90;77.80
19567;DHT22;9930;49.240;8.548;2023-08-07T06:47:33;17.00;77.70
19567;DHT22;9930;49.240;8.548;2023-08-07T06:50:00;17.00;77.60
19567;DHT22;9930;49.240;8.548;2023-08-07T06:52:28;17.00;77.60
19567;DHT22;9930;49.240;8.548;2023-08-07T06:54:55;17.00;77.50
19567;DHT22;9930;49.240;8.548;2023-08-07T06:57:26;17.00;77.50
19567;DHT22;9930;49.240;8.548;2023-08-07T06:59:54;17.10;77.30
19567;DHT22;9930;49.240;8.548;2023-08-07T07:02:23;17.10;77.10
19567;DHT22;9930;49.240;8.548;2023-08-07T07:04:50;17.10;77.10
19567;DHT22;9930;49.240;8.548;2023-08-07T07:07:18;17.10;77.30
19567;DHT22;9930;49.240;8.548;2023-08-07T07:09:48;17.10;76.90
19567;DHT22;9930;49.240;8.548;2023-08-07T07:12:14;17.20;76.90
19567;DHT22;9930;49.240;8.548;2023-08-07T07:14:40;17.20;76.80
19567;DHT22;9930;49.240;8.548;2023-08-07T07:17:08;17.20;76.70
19567;DHT22;9930;49.240;8.548;2023-08-07T07:19:33;17.20;76.50
19567;DHT22;9930;49.240;8.548;2023-08-07T07:21:59;17.30;76.40
19567;DHT22;9930;49.240;8.548;2023-08-07T07:24:29;17.30;76.20
19567;DHT22;9930;49.240;8.548;2023-08-07T07:26:58;17.30;76.10
19567;DHT22;9930;49.240;8.548;2023-08-07T07:29:24;17.30;76.10
19567;DHT22;9930;49.240;8.548;2023-08-07T07:31:51;17.30;76.00
19567;DHT22;9930;49.240;8.548;2023-08-07T07:34:21;17.30;76.10
19567;DHT22;9930;49.240;8.548;2023-08-07T07:36:47;17.30;76.10
19567;DHT22;9930;49.240;8.548;2023-08-07T07:39:13;17.30;76.00
19567;DHT22;9930;49.240;8.548;2023-08-07T07:41:39;17.40;76.00
19567;DHT22;9930;49.240;8.548;2023-08-07T07:44:07;17.40;75.90
19567;DHT22;9930;49.240;8.548;2023-08-07T07:46:33;17.40;75.80
19567;DHT22;9930;49.240;8.548;2023-08-07T07:48:59;17.40;75.80
19567;DHT22;9930;49.240;8.548;2023-08-07T07:51:30;17.40;75.70
19567;DHT22;9930;49.240;8.548;2023-08-07T07:53:57;17.40;75.50
19567;DHT22;9930;49.240;8.548;2023-08-07T07:56:23;17.50;75.30
19567;DHT22;9930;49.240;8.548;2023-08-07T07:58:50;17.50;75.20
19567;DHT22;9930;49.240;8.548;2023-08-07T08:01:15;17.50;75.10
19567;DHT22;9930;49.240;8.548;2023-08-07T08:03:45;17.50;75.20
19567;DHT22;9930;49.240;8.548;2023-08-07T08:06:14;17.50;75.20
19567;DHT22;9930;49.240;8.548;2023-08-07T08:08:42;17.50;75.10
19567;DHT22;9930;49.240;8.548;2023-08-07T08:11:08;17.60;75.30
19567;DHT22;9930;49.240;8.548;2023-08-07T08:13:34;17.60;75.30
19567;DHT22;9930;49.240;8.548;2023-08-07T08:16:04;17.70;75.30
19567;DHT22;9930;49.240;8.548;2023-08-07T08:18:32;17.70;75.50
19567;DHT22;9930;49.240;8.548;2023-08-07T08:21:00;17.80;75.60
19567;DHT22;9930;49.240;8.548;2023-08-07T08:23:26;17.90;75.70
19567;DHT22;9930;49.240;8.548;2023-08-07T08:25:54;18.00;75.70
19567;DHT22;9930;49.240;8.548;2023-08-07T08:28:26;18.10;75.70
19567;DHT22;9930;49.240;8.548;2023-08-07T08:30:54;18.30;75.60
19567;DHT22;9930;49.240;8.548;2023-08-07T08:33:23;18.30;75.20
19567;DHT22;9930;49.240;8.548;2023-08-07T08:35:51;18.50;75.60
19567;DHT22;9930;49.240;8.548;2023-08-07T08:38:17;18.50;74.50
19567;DHT22;9930;49.240;8.548;2023-08-07T08:40:47;18.60;74.30
19567;DHT22;9930;49.240;8.548;2023-08-07T08:43:17;18.60;74.10
19567;DHT22;9930;49.240;8.548;2023-08-07T08:45:43;18.70;74.20
19567;DHT22;9930;49.240;8.548;2023-08-07T08:48:12;18.80;73.70
19567;DHT22;9930;49.240;8.548;2023-08-07T08:50:49;18.90;73.30
19567;DHT22;9930;49.240;8.548;2023-08-07T08:53:16;19.00;73.40
19567;DHT22;9930;49.240;8.548;2023-08-07T08:55:43;19.00;73.30
19567;DHT22;9930;49.240;8.548;2023-08-07T08:58:13;19.10;73.20
19567;DHT22;9930;49.240;8.548;2023-08-07T09:00:41;19.20;73.00
19567;DHT22;9930;49.240;8.548;2023-08-07T09:03:10;19.30;72.80
19567;DHT22;9930;49.240;8.548;2023-08-07T09:05:37;19.40;72.60
19567;DHT22;9930;49.240;8.548;2023-08-07T09:08:05;19.60;72.60
19567;DHT22;9930;49.240;8.548;2023-08-07T09:10:32;19.70;72.40
19567;DHT22;9930;49.240;8.548;2023-08-07T09:13:03;19.80;72.20
19567;DHT22;9930;49.240;8.548;2023-08-07T09:15:32;20.00;72.10
19567;DHT22;9930;49.240;8.548;2023-08-07T09:18:03;20.20;71.70
19567;DHT22;9930;49.240;8.548;2023-08-07T09:20:33;20.30;71.60
19567;DHT22;9930;49.240;8.548;2023-08-07T09:23:01;20.50;71.40
19567;DHT22;9930;49.240;8.548;2023-08-07T09:25:32;20.70;70.90
19567;DHT22;9930;49.240;8.548;2023-08-07T09:28:02;20.90;70.30
19567;DHT22;9930;49.240;8.548;2023-08-07T09:30:34;21.00;69.50
19567;DHT22;9930;49.240;8.548;2023-08-07T09:33:01;21.20;69.10
19567;DHT22;9930;49.240;8.548;2023-08-07T09:35:30;21.30;68.50
19567;DHT22;9930;49.240;8.548;2023-08-07T09:37:57;21.40;67.60
19567;DHT22;9930;49.240;8.548;2023-08-07T09:40:24;21.50;67.30
19567;DHT22;9930;49.240;8.548;2023-08-07T09:42:56;21.50;66.80
19567;DHT22;9930;49.240;8.548;2023-08-07T09:45:23;21.50;66.20
19567;DHT22;9930;49.240;8.548;2023-08-07T09:48:04;21.50;66.00
19567;DHT22;9930;49.240;8.548;2023-08-07T09:50:36;21.40;64.70
19567;DHT22;9930;49.240;8.548;2023-08-07T09:53:04;21.40;65.70
19567;DHT22;9930;49.240;8.548;2023-08-07T09:55:33;21.40;66.30
19567;DHT22;9930;49.240;8.548;2023-08-07T09:58:00;21.30;65.30
19567;DHT22;9930;49.240;8.548;2023-08-07T10:00:27;21.30;65.60
19567;DHT22;9930;49.240;8.548;2023-08-07T10:02:55;21.30;66.00
19567;DHT22;9930;49.240;8.548;2023-08-07T10:05:21;21.30;66.30
19567;DHT22;9930;49.240;8.548;2023-08-07T10:07:51;21.30;66.10
19567;DHT22;9930;49.240;8.548;2023-08-07T10:10:17;21.30;66.40
19567;DHT22;9930;49.240;8.548;2023-08-07T10:12:46;21.30;66.20
19567;DHT22;9930;49.240;8.548;2023-08-07T10:15:19;21.40;66.10
19567;DHT22;9930;49.240;8.548;2023-08-07T10:17:46;21.40;65.80
19567;DHT22;9930;49.240;8.548;2023-08-07T10:20:12;21.40;65.60
19567;DHT22;9930;49.240;8.548;2023-08-07T10:22:38;21.30;65.50
19567;DHT22;9930;49.240;8.548;2023-08-07T10:25:07;21.30;65.30
19567;DHT22;9930;49.240;8.548;2023-08-07T10:27:38;21.20;65.20
19567;DHT22;9930;49.240;8.548;2023-08-07T10:30:10;21.20;65.40
19567;DHT22;9930;49.240;8.548;2023-08-07T10:32:43;21.20;66.40
19567;DHT22;9930;49.240;8.548;2023-08-07T10:35:28;21.10;65.90
19567;DHT22;9930;49.240;8.548;2023-08-07T10:38:08;21.10;66.00
19567;DHT22;9930;49.240;8.548;2023-08-07T10:43:43;21.20;66.70
19567;DHT22;9930;49.240;8.548;2023-08-07T10:46:14;21.20;66.50
19567;DHT22;9930;49.240;8.548;2023-08-07T10:48:45;21.20;66.60
19567;DHT22;9930;49.240;8.548;2023-08-07T10:51:17;21.20;66.40
19567;DHT22;9930;49.240;8.548;2023-08-07T10:53:45;21.20;66.80
19567;DHT22;9930;49.240;8.548;2023-08-07T10:56:30;21.20;67.20
19567;DHT22;9930;49.240;8.548;2023-08-07T10:59:11;21.20;67.60
19567;DHT22;9930;49.240;8.548;2023-08-07T11:01:43;21.20;67.50
19567;DHT22;9930;49.240;8.548;2023-08-07T11:04:13;21.20;67.50
19567;DHT22;9930;49.240;8.548;2023-08-07T11:06:43;21.30;67.70
19567;DHT22;9930;49.240;8.548;2023-08-07T11:09:12;21.30;67.70
19567;DHT22;9930;49.240;8.548;2023-08-07T11:11:39;21.30;67.60
19567;DHT22;9930;49.240;8.548;2023-08-07T11:14:13;21.30;67.40
19567;DHT22;9930;49.240;8.548;2023-08-07T11:16:44;21.20;67.30
19567;DHT22;9930;49.240;8.548;2023-08-07T11:19:17;21.20;67.40
19567;DHT22;9930;49.240;8.548;2023-08-07T11:21:46;21.20;67.10
19567;DHT22;9930;49.240;8.548;2023-08-07T11:24:13;21.20;67.20
19567;DHT22;9930;49.240;8.548;2023-08-07T11:26:45;21.20;67.40
19567;DHT22;9930;49.240;8.548;2023-08-07T11:29:10;21.20;68.20
19567;DHT22;9930;49.240;8.548;2023-08-07T11:31:36;21.20;67.70
19567;DHT22;9930;49.240;8.548;2023-08-07T11:34:02;21.20;68.00
19567;DHT22;9930;49.240;8.548;2023-08-07T11:36:28;21.20;67.90
19567;DHT22;9930;49.240;8.548;2023-08-07T11:38:57;21.20;67.80
19567;DHT22;9930;49.240;8.548;2023-08-07T11:41:23;21.30;67.90
19567;DHT22;9930;49.240;8.548;2023-08-07T11:43:48;21.30;67.90
19567;DHT22;9930;49.240;8.548;2023-08-07T11:46:15;21.30;67.50
19567;DHT22;9930;49.240;8.548;2023-08-07T11:48:44;21.30;67.60
19567;DHT22;9930;49.240;8.548;2023-08-07T11:51:13;21.30;67.80
19567;DHT22;9930;49.240;8.548;2023-08-07T11:53:40;21.30;67.60
19567;DHT22;9930;49.240;8.548;2023-08-07T11:56:09;21.40;67.70
19567;DHT22;9930;49.240;8.548;2023-08-07T11:58:43;21.40;67.90
19567;DHT22;9930;49.240;8.548;2023-08-07T12:06:36;21.40;68.00
19567;DHT22;9930;49.240;8.548;2023-08-07T12:09:06;21.60;68.40
19567;DHT22;9930;49.240;8.548;2023-08-07T12:11:38;21.60;68.20
19567;DHT22;9930;49.240;8.548;2023-08-07T12:14:04;21.70;68.00
19567;DHT22;9930;49.240;8.548;2023-08-07T12:16:36;21.90;67.70
19567;DHT22;9930;49.240;8.548;2023-08-07T12:19:04;21.90;67.30
19567;DHT22;9930;49.240;8.548;2023-08-07T12:21:32;22.00;67.30
19567;DHT22;9930;49.240;8.548;2023-08-07T12:23:59;22.10;67.10
19567;DHT22;9930;49.240;8.548;2023-08-07T12:26:28;22.20;66.80
19567;DHT22;9930;49.240;8.548;2023-08-07T12:28:53;22.30;66.10
19567;DHT22;9930;49.240;8.548;2023-08-07T12:31:20;22.40;66.00
19567;DHT22;9930;49.240;8.548;2023-08-07T12:33:45;22.40;65.80
19567;DHT22;9930;49.240;8.548;2023-08-07T12:36:11;22.40;65.30
19567;DHT22;9930;49.240;8.548;2023-08-07T12:38:38;22.40;65.40
19567;DHT22;9930;49.240;8.548;2023-08-07T12:41:06;22.40;65.70
19567;DHT22;9930;49.240;8.548;2023-08-07T12:43:34;22.40;65.90
19567;DHT22;9930;49.240;8.548;2023-08-07T12:46:02;22.50;65.70
19567;DHT22;9930;49.240;8.548;2023-08-07T12:48:30;22.50;65.40
19567;DHT22;9930;49.240;8.548;2023-08-07T12:50:56;22.60;65.10
19567;DHT22;9930;49.240;8.548;2023-08-07T12:53:22;22.60;65.10
19567;DHT22;9930;49.240;8.548;2023-08-07T12:55:48;22.70;64.80
19567;DHT22;9930;49.240;8.548;2023-08-07T12:58:13;22.70;64.70
19567;DHT22;9930;49.240;8.548;2023-08-07T13:00:40;22.80;64.80
19567;DHT22;9930;49.240;8.548;2023-08-07T13:03:06;22.90;64.60
19567;DHT22;9930;49.240;8.548;2023-08-07T13:05:32;22.90;64.00
19567;DHT22;9930;49.240;8.548;2023-08-07T13:07:58;22.90;63.20
19567;DHT22;9930;49.240;8.548;2023-08-07T13:10:25;22.90;63.10
19567;DHT22;9930;49.240;8.548;2023-08-07T13:12:56;22.90;62.90
19567;DHT22;9930;49.240;8.548;2023-08-07T13:15:26;22.90;62.80
19567;DHT22;9930;49.240;8.548;2023-08-07T13:17:52;22.90;63.00
19567;DHT22;9930;49.240;8.548;2023-08-07T13:20:20;22.90;62.80
19567;DHT22;9930;49.240;8.548;2023-08-07T13:22:46;22.80;62.60
19567;DHT22;9930;49.240;8.548;2023-08-07T13:25:13;22.80;62.30
19567;DHT22;9930;49.240;8.548;2023-08-07T13:27:39;22.80;61.40
19567;DHT22;9930;49.240;8.548;2023-08-07T13:30:06;22.80;60.80
19567;DHT22;9930;49.240;8.548;2023-08-07T13:32:39;22.80;60.50
19567;DHT22;9930;49.240;8.548;2023-08-07T13:35:05;22.80;59.80
19567;DHT22;9930;49.240;8.548;2023-08-07T13:37:31;22.80;60.00
19567;DHT22;9930;49.240;8.548;2023-08-07T13:39:58;22.80;60.10
19567;DHT22;9930;49.240;8.548;2023-08-07T13:42:27;22.80;60.10
19567;DHT22;9930;49.240;8.548;2023-08-07T13:44:56;22.80;59.80
19567;DHT22;9930;49.240;8.548;2023-08-07T13:47:21;22.90;60.20
19567;DHT22;9930;49.240;8.548;2023-08-07T13:49:47;23.00;60.10
19567;DHT22;9930;49.240;8.548;2023-08-07T13:52:13;23.10;60.00
19567;DHT22;9930;49.240;8.548;2023-08-07T13:54:39;23.20;59.10
19567;DHT22;9930;49.240;8.548;2023-08-07T13:57:04;23.30;58.90
19567;DHT22;9930;49.240;8.548;2023-08-07T13:59:30;23.40;58.60
19567;DHT22;9930;49.240;8.548;2023-08-07T14:01:58;23.50;58.20
19567;DHT22;9930;49.240;8.548;2023-08-07T14:04:26;23.50;57.60
19567;DHT22;9930;49.240;8.548;2023-08-07T14:06:52;23.50;57.70
19567;DHT22;9930;49.240;8.548;2023-08-07T14:09:18;23.40;56.60
19567;DHT22;9930;49.240;8.548;2023-08-07T14:11:47;23.40;56.60
19567;DHT22;9930;49.240;8.548;2023-08-07T14:14:13;23.40;56.80
19567;DHT22;9930;49.240;8.548;2023-08-07T14:16:39;23.40;57.10
19567;DHT22;9930;49.240;8.548;2023-08-07T14:19:05;23.50;57.30
19567;DHT22;9930;49.240;8.548;2023-08-07T14:21:33;23.50;57.40
19567;DHT22;9930;49.240;8.548;2023-08-07T14:23:58;23.60;57.40
19567;DHT22;9930;49.240;8.548;2023-08-07T14:26:26;23.70;57.00
19567;DHT22;9930;49.240;8.548;2023-08-07T14:28:52;23.80;56.80
19567;DHT22;9930;49.240;8.548;2023-08-07T14:31:20;23.90;56.30
19567;DHT22;9930;49.240;8.548;2023-08-07T14:33:48;23.90;55.90
19567;DHT22;9930;49.240;8.548;2023-08-07T14:36:14;23.90;55.40
19567;DHT22;9930;49.240;8.548;2023-08-07T14:38:40;23.90;55.40
19567;DHT22;9930;49.240;8.548;2023-08-07T14:41:06;23.80;55.10
19567;DHT22;9930;49.240;8.548;2023-08-07T14:43:34;23.80;55.30
19567;DHT22;9930;49.240;8.548;2023-08-07T14:45:59;23.80;55.50
19567;DHT22;9930;49.240;8.548;2023-08-07T14:48:28;23.80;55.40
19567;DHT22;9930;49.240;8.548;2023-08-07T14:50:53;23.80;55.10
19567;DHT22;9930;49.240;8.548;2023-08-07T14:53:21;23.80;55.20
19567;DHT22;9930;49.240;8.548;2023-08-07T14:55:47;23.80;55.10
19567;DHT22;9930;49.240;8.548;2023-08-07T14:58:13;23.80;55.60
19567;DHT22;9930;49.240;8.548;2023-08-07T15:00:46;23.70;55.00
19567;DHT22;9930;49.240;8.548;2023-08-07T15:03:11;23.70;55.10
19567;DHT22;9930;49.240;8.548;2023-08-07T15:05:37;23.70;55.10
19567;DHT22;9930;49.240;8.548;2023-08-07T15:08:08;23.70;55.10
19567;DHT22;9930;49.240;8.548;2023-08-07T15:10:36;23.70;55.20
19567;DHT22;9930;49.240;8.548;2023-08-07T15:13:02;23.70;54.90
19567;DHT22;9930;49.240;8.548;2023-08-07T15:15:28;23.60;54.80
19567;DHT22;9930;49.240;8.548;2023-08-07T15:17:54;23.60;54.90
19567;DHT22;9930;49.240;8.548;2023-08-07T15:20:20;23.60;54.70
19567;DHT22;9930;49.240;8.548;2023-08-07T15:22:47;23.60;54.50
19567;DHT22;9930;49.240;8.548;2023-08-07T15:25:20;23.50;54.40
19567;DHT22;9930;49.240;8.548;2023-08-07T15:27:46;23.40;54.40
19567;DHT22;9930;49.240;8.548;2023-08-07T15:30:12;23.30;54.30
19567;DHT22;9930;49.240;8.548;2023-08-07T15:32:38;23.30;54.40
19567;DHT22;9930;49.240;8.548;2023-08-07T15:35:06;23.10;54.40
19567;DHT22;9930;49.240;8.548;2023-08-07T15:37:32;23.10;54.60
19567;DHT22;9930;49.240;8.548;2023-08-07T15:40:01;23.00;54.50
19567;DHT22;9930;49.240;8.548;2023-08-07T15:42:29;22.90;54.50
19567;DHT22;9930;49.240;8.548;2023-08-07T15:44:57;22.90;54.90
19567;DHT22;9930;49.240;8.548;2023-08-07T15:47:23;22.90;55.10
19567;DHT22;9930;49.240;8.548;2023-08-07T15:49:51;22.90;55.20
19567;DHT22;9930;49.240;8.548;2023-08-07T15:52:17;22.90;55.10
19567;DHT22;9930;49.240;8.548;2023-08-07T15:54:47;22.90;55.00
19567;DHT22;9930;49.240;8.548;2023-08-07T15:57:13;23.00;54.90
19567;DHT22;9930;49.240;8.548;2023-08-07T15:59:41;23.00;54.90
19567;DHT22;9930;49.240;8.548;2023-08-07T16:02:09;23.00;54.80
19567;DHT22;9930;49.240;8.548;2023-08-07T16:04:35;23.00;54.70
19567;DHT22;9930;49.240;8.548;2023-08-07T16:07:01;22.90;54.60